Time;durP1;ratioP1;P1;durP2;ratioP2;P2;SDS_P1;SDS_P2;PMS_P1;PMS_P2;Temp;Humidity;BMP_temperature;BMP_pressure;BME280_temperature;BME280_humidity;BME280_pressure;Samples;Min_cycle;Max_cycle;Signal;HPM_P1;HPM_P2
2022/11/02 00:03:28;;;;;;;;;;;12.90;99.90;;;;;;8421397;28;19931;-72
2022/11/02 00:07:30;;;;;;;;;;;12.90;99.90;;;;;;8418755;28;20274;-72
2022/11/02 00:11:32;;;;;;;;;;;13.00;99.90;;;;;;8407300;28;19924;-72
2022/11/02 00:15:34;;;;;;;;;;;13.00;99.90;;;;;;8403813;28;19925;-71
2022/11/02 00:19:36;;;;;;;;;;;13.10;99.90;;;;;;8404320;28;19930;-71
2022/11/02 00:23:39;;;;;;;;;;;13.20;99.90;;;;;;8410015;28;19924;-72
2022/11/02 00:27:41;;;;;;;;;;;13.20;99.90;;;;;;8402593;28;20027;-72
2022/11/02 00:31:42;;;;;;;;;;;13.30;99.90;;;;;;8405465;28;19932;-72
2022/11/02 00:35:45;;;;;;;;;;;13.30;99.90;;;;;;8403147;28;20359;-72
2022/11/02 00:39:46;;;;;;;;;;;13.40;99.90;;;;;;8414519;28;19924;-71
2022/11/02 00:43:48;;;;;;;;;;;13.40;99.90;;;;;;8421896;28;19932;-72
2022/11/02 00:47:50;;;;;;;;;;;13.40;99.90;;;;;;8413595;28;19930;-71
2022/11/02 00:51:51;;;;;;;;;;;13.30;99.90;;;;;;8429623;28;19932;-72
2022/11/02 00:55:53;;;;;;;;;;;13.30;99.90;;;;;;8413750;28;19928;-72
2022/11/02 00:59:55;;;;;;;;;;;13.30;99.90;;;;;;8424138;28;19928;-72
2022/11/02 01:09:00;;;;;;;;;;;13.30;99.90;;;;;;8414040;28;19922;-74
2022/11/02 01:13:01;;;;;;;;;;;12.90;99.90;;;;;;8430805;27;19928;-72
2022/11/02 01:17:03;;;;;;;;;;;12.30;99.90;;;;;;8392235;28;19928;-72
2022/11/02 01:21:05;;;;;;;;;;;11.90;99.90;;;;;;8424980;28;19934;-73
2022/11/02 01:25:08;;;;;;;;;;;11.60;99.90;;;;;;8393638;28;19930;-73
2022/11/02 01:29:09;;;;;;;;;;;11.40;99.90;;;;;;8412007;28;20342;-73
2022/11/02 01:33:11;;;;;;;;;;;11.20;99.90;;;;;;8421502;28;19934;-72
2022/11/02 01:37:12;;;;;;;;;;;11.00;99.90;;;;;;8404929;28;20346;-72
2022/11/02 01:41:14;;;;;;;;;;;10.80;99.90;;;;;;8391576;28;19967;-72
2022/11/02 01:45:16;;;;;;;;;;;10.60;99.90;;;;;;8412037;28;19928;-73
2022/11/02 01:49:19;;;;;;;;;;;10.40;99.90;;;;;;8409565;28;20563;-72
2022/11/02 01:53:20;;;;;;;;;;;10.30;99.90;;;;;;8432025;27;19970;-72
2022/11/02 01:57:22;;;;;;;;;;;10.30;99.90;;;;;;8408161;28;19932;-72
2022/11/02 02:01:24;;;;;;;;;;;10.20;99.90;;;;;;8430478;28;20030;-72
2022/11/02 02:05:27;;;;;;;;;;;10.20;99.90;;;;;;8416243;28;19925;-72
2022/11/02 02:09:28;;;;;;;;;;;10.20;99.90;;;;;;8406066;28;19924;-72
2022/11/02 02:13:30;;;;;;;;;;;10.20;99.90;;;;;;8418131;28;19939;-72
2022/11/02 02:17:47;;;;;;;;;;;10.20;99.90;;;;;;8423713;28;19935;-72
2022/11/02 02:22:05;;;;;;;;;;;10.20;99.90;;;;;;8408143;28;20720;-72
2022/11/02 02:26:12;;;;;;;;;;;10.20;99.90;;;;;;8427037;28;22569;-72
2022/11/02 02:30:15;;;;;;;;;;;10.30;99.90;;;;;;8402450;28;20379;-72
2022/11/02 02:34:21;;;;;;;;;;;10.30;99.90;;;;;;8413334;28;20389;-73
2022/11/02 02:38:29;;;;;;;;;;;10.40;99.90;;;;;;8391030;28;19928;-72
2022/11/02 02:42:34;;;;;;;;;;;10.50;99.90;;;;;;8420502;28;19928;-72
2022/11/02 02:46:43;;;;;;;;;;;10.60;99.90;;;;;;8419545;28;19967;-72
2022/11/02 02:50:46;;;;;;;;;;;10.70;99.90;;;;;;8418493;28;19924;-72
2022/11/02 02:54:51;;;;;;;;;;;10.80;99.90;;;;;;8408973;28;19928;-72
2022/11/02 02:59:13;;;;;;;;;;;10.90;99.90;;;;;;8418754;28;20018;-72
2022/11/02 03:03:17;;;;;;;;;;;10.90;99.90;;;;;;8401232;28;19931;-72
2022/11/02 03:07:20;;;;;;;;;;;10.90;99.90;;;;;;8406115;28;20269;-72
2022/11/02 03:11:22;;;;;;;;;;;11.00;99.90;;;;;;8412651;28;19930;-72
2022/11/02 03:15:26;;;;;;;;;;;11.00;99.90;;;;;;8388415;28;21316;-72
2022/11/02 03:19:35;;;;;;;;;;;11.10;99.90;;;;;;8405234;28;19982;-72
2022/11/02 03:23:40;;;;;;;;;;;11.10;99.90;;;;;;8418538;28;20001;-72
2022/11/02 03:27:47;;;;;;;;;;;11.10;99.90;;;;;;8406929;28;20019;-72
2022/11/02 03:32:21;;;;;;;;;;;11.20;99.90;;;;;;8396123;28;20559;-72
2022/11/02 03:36:31;;;;;;;;;;;11.20;99.90;;;;;;8386505;28;20022;-72
2022/11/02 03:40:36;;;;;;;;;;;11.20;99.90;;;;;;8409674;28;19924;-72
2022/11/02 03:44:38;;;;;;;;;;;11.20;99.90;;;;;;8404553;28;20294;-72
2022/11/02 03:48:43;;;;;;;;;;;11.30;99.90;;;;;;8404681;28;21681;-73
2022/11/02 03:52:46;;;;;;;;;;;11.30;99.90;;;;;;8408928;28;19931;-72
2022/11/02 03:56:50;;;;;;;;;;;11.30;99.90;;;;;;8407575;28;20363;-72
2022/11/02 04:01:00;;;;;;;;;;;11.40;99.90;;;;;;8409931;28;19932;-72
2022/11/02 04:05:02;;;;;;;;;;;11.40;99.90;;;;;;8409438;28;20044;-72
2022/11/02 04:09:04;;;;;;;;;;;11.40;99.90;;;;;;8421506;28;19932;-72
2022/11/02 04:26:08;;;;;;;;;;;11.70;99.90;;;;;;8412392;28;20272;-72
2022/11/02 04:30:10;;;;;;;;;;;11.80;99.90;;;;;;8408719;28;19954;-72
2022/11/02 04:34:12;;;;;;;;;;;11.80;99.90;;;;;;8399687;28;19964;-72
2022/11/02 04:43:17;;;;;;;;;;;11.90;99.90;;;;;;8419943;28;20329;-72
2022/11/02 04:47:19;;;;;;;;;;;11.90;99.90;;;;;;8430267;28;19932;-72
2022/11/02 04:51:21;;;;;;;;;;;12.00;99.90;;;;;;8439591;27;20367;-73
2022/11/02 04:55:23;;;;;;;;;;;11.90;99.90;;;;;;8433475;27;19930;-73
2022/11/02 04:59:24;;;;;;;;;;;11.80;99.90;;;;;;8413722;28;20010;-73
2022/11/02 05:03:26;;;;;;;;;;;11.80;99.90;;;;;;8422697;28;19928;-72
2022/11/02 05:07:28;;;;;;;;;;;11.80;99.90;;;;;;8419711;28;20523;-73
2022/11/02 05:11:29;;;;;;;;;;;11.90;99.90;;;;;;8419629;28;19938;-72
2022/11/02 05:15:31;;;;;;;;;;;11.80;99.90;;;;;;8394549;28;19936;-73
2022/11/02 05:19:33;;;;;;;;;;;11.80;99.90;;;;;;8414414;28;20275;-72
2022/11/02 05:23:34;;;;;;;;;;;11.70;99.90;;;;;;8415407;28;19924;-72
2022/11/02 05:27:36;;;;;;;;;;;11.70;99.90;;;;;;8411415;28;19928;-72
2022/11/02 05:31:38;;;;;;;;;;;11.70;99.90;;;;;;8412800;28;20334;-72
2022/11/02 05:35:40;;;;;;;;;;;11.60;99.90;;;;;;8416464;28;19932;-72
2022/11/02 05:39:41;;;;;;;;;;;11.50;99.90;;;;;;8411626;28;19935;-72
2022/11/02 05:43:45;;;;;;;;;;;11.50;99.90;;;;;;8406178;28;20295;-72
2022/11/02 05:47:47;;;;;;;;;;;11.50;99.90;;;;;;8407445;28;20023;-72
2022/11/02 05:51:48;;;;;;;;;;;11.50;99.90;;;;;;8413035;28;20078;-72
2022/11/02 05:55:50;;;;;;;;;;;11.50;99.90;;;;;;8400582;28;19932;-72
2022/11/02 05:59:52;;;;;;;;;;;11.50;99.90;;;;;;8414305;28;19932;-72
2022/11/02 06:03:53;;;;;;;;;;;11.60;99.90;;;;;;8391770;28;19924;-72
2022/11/02 06:07:59;;;;;;;;;;;11.60;99.90;;;;;;8386152;28;19924;-72
2022/11/02 06:12:00;;;;;;;;;;;11.70;99.90;;;;;;8411747;28;20002;-72
2022/11/02 06:16:03;;;;;;;;;;;11.70;99.90;;;;;;8418293;28;19985;-72
2022/11/02 06:20:05;;;;;;;;;;;11.70;99.90;;;;;;8397911;28;19924;-72
2022/11/02 06:24:07;;;;;;;;;;;11.80;99.90;;;;;;8400115;28;19943;-72
2022/11/02 06:28:09;;;;;;;;;;;11.80;99.90;;;;;;8410270;28;19967;-72
2022/11/02 06:32:10;;;;;;;;;;;11.80;99.90;;;;;;8388248;28;20407;-72
2022/11/02 06:36:12;;;;;;;;;;;11.70;99.90;;;;;;8416198;28;20019;-72
2022/11/02 06:40:14;;;;;;;;;;;11.70;99.90;;;;;;8417261;28;19932;-72
2022/11/02 06:44:16;;;;;;;;;;;11.70;99.90;;;;;;8407784;28;20441;-72
2022/11/02 06:48:18;;;;;;;;;;;11.60;99.90;;;;;;8426366;28;19928;-72
2022/11/02 06:52:20;;;;;;;;;;;11.70;99.90;;;;;;8423871;28;20341;-72
2022/11/02 06:56:21;;;;;;;;;;;11.60;99.90;;;;;;8412131;28;20298;-72
2022/11/02 07:00:23;;;;;;;;;;;11.60;99.90;;;;;;8420899;28;19960;-72
2022/11/02 07:04:24;;;;;;;;;;;11.50;99.90;;;;;;8416186;28;19925;-72
2022/11/02 07:08:27;;;;;;;;;;;11.50;99.90;;;;;;8418734;28;20249;-72
2022/11/02 07:12:30;;;;;;;;;;;11.50;99.90;;;;;;8400751;28;20352;-72
2022/11/02 07:16:31;;;;;;;;;;;11.50;99.90;;;;;;8414297;28;19962;-72
2022/11/02 07:20:33;;;;;;;;;;;11.50;99.90;;;;;;8403473;28;19958;-72
2022/11/02 07:24:35;;;;;;;;;;;11.50;99.90;;;;;;8422131;28;19936;-73
2022/11/02 07:28:37;;;;;;;;;;;11.40;99.90;;;;;;8421963;28;22007;-72
2022/11/02 07:32:42;;;;;;;;;;;11.40;99.90;;;;;;8421262;28;19970;-72
2022/11/02 07:36:43;;;;;;;;;;;11.40;99.90;;;;;;8426064;28;20329;-73
2022/11/02 07:40:47;;;;;;;;;;;11.40;99.90;;;;;;8424620;28;19930;-72
2022/11/02 07:44:48;;;;;;;;;;;11.40;99.90;;;;;;8403596;28;19924;-72
2022/11/02 07:48:50;;;;;;;;;;;11.40;99.90;;;;;;8420699;28;19924;-72
2022/11/02 07:52:53;;;;;;;;;;;11.50;99.90;;;;;;8422072;28;20379;-72
2022/11/02 07:56:54;;;;;;;;;;;11.40;99.90;;;;;;8388953;28;20019;-72
2022/11/02 08:00:57;;;;;;;;;;;11.40;99.90;;;;;;8408118;28;19924;-72
2022/11/02 08:05:00;;;;;;;;;;;11.40;99.90;;;;;;8418614;28;20310;-72
2022/11/02 08:09:02;;;;;;;;;;;11.50;99.90;;;;;;8420261;28;19975;-72
2022/11/02 08:13:03;;;;;;;;;;;11.50;99.90;;;;;;8419903;28;20309;-72
2022/11/02 08:17:05;;;;;;;;;;;11.60;99.90;;;;;;8425204;28;19928;-72
2022/11/02 08:21:07;;;;;;;;;;;11.60;99.90;;;;;;8420953;28;20344;-72
2022/11/02 08:25:08;;;;;;;;;;;11.60;99.90;;;;;;8420391;28;19924;-72
2022/11/02 08:29:10;;;;;;;;;;;11.70;99.90;;;;;;8420352;28;19924;-73
2022/11/02 08:33:14;;;;;;;;;;;11.80;99.90;;;;;;8420789;28;20047;-72
2022/11/02 08:37:15;;;;;;;;;;;12.00;99.90;;;;;;8407664;28;20294;-72
2022/11/02 08:41:17;;;;;;;;;;;12.10;99.90;;;;;;8426887;28;20019;-72
2022/11/02 08:45:19;;;;;;;;;;;12.30;99.90;;;;;;8424523;28;19924;-72
2022/11/02 08:49:20;;;;;;;;;;;12.30;99.90;;;;;;8405499;28;19928;-72
2022/11/02 08:53:22;;;;;;;;;;;12.40;99.90;;;;;;8420238;28;19964;-72
2022/11/02 08:57:24;;;;;;;;;;;12.50;99.90;;;;;;8418054;28;19928;-72
2022/11/02 09:01:25;;;;;;;;;;;12.50;99.90;;;;;;8431714;28;20379;-72
2022/11/02 09:05:28;;;;;;;;;;;12.60;99.90;;;;;;8415941;28;19935;-72
2022/11/02 09:09:29;;;;;;;;;;;12.80;99.90;;;;;;8410357;28;19988;-73
2022/11/02 09:13:31;;;;;;;;;;;13.00;99.90;;;;;;8419375;28;20426;-72
2022/11/02 09:17:33;;;;;;;;;;;13.20;99.90;;;;;;8415924;28;19949;-72
2022/11/02 09:21:34;;;;;;;;;;;13.30;99.90;;;;;;8414356;28;20030;-72
2022/11/02 09:25:36;;;;;;;;;;;13.30;99.90;;;;;;8418213;28;19924;-72
2022/11/02 09:29:37;;;;;;;;;;;13.40;99.90;;;;;;8408288;28;19989;-72
2022/11/02 09:33:39;;;;;;;;;;;13.40;99.90;;;;;;8418201;28;20379;-73
2022/11/02 09:37:43;;;;;;;;;;;13.30;99.90;;;;;;8422526;28;19931;-72
2022/11/02 09:42:00;;;;;;;;;;;13.30;99.90;;;;;;8401106;28;19976;-72
2022/11/02 09:46:15;;;;;;;;;;;13.30;99.90;;;;;;8414567;28;20420;-72
2022/11/02 09:50:21;;;;;;;;;;;13.40;99.90;;;;;;8391661;28;19935;-72
2022/11/02 09:54:23;;;;;;;;;;;13.50;99.90;;;;;;8397656;28;19932;-72
2022/11/02 09:58:34;;;;;;;;;;;13.80;99.90;;;;;;8406291;28;20280;-73
2022/11/02 10:02:55;;;;;;;;;;;14.00;99.90;;;;;;8419941;28;19935;-73
2022/11/02 10:07:17;;;;;;;;;;;14.40;99.90;;;;;;8419561;28;19924;-72
2022/11/02 10:11:37;;;;;;;;;;;14.80;99.90;;;;;;8381378;28;19930;-72
2022/11/02 10:15:44;;;;;;;;;;;15.10;99.90;;;;;;8418360;28;20894;-73
2022/11/02 10:19:56;;;;;;;;;;;15.30;99.90;;;;;;8407328;28;19924;-73
2022/11/02 10:24:02;;;;;;;;;;;15.70;99.90;;;;;;8409821;28;19933;-72
2022/11/02 10:28:09;;;;;;;;;;;15.80;99.90;;;;;;8413873;28;19962;-72
2022/11/02 10:32:11;;;;;;;;;;;16.00;99.90;;;;;;8417846;28;20377;-72
2022/11/02 10:36:19;;;;;;;;;;;16.20;99.90;;;;;;8424764;28;19923;-72
2022/11/02 10:40:45;;;;;;;;;;;16.40;99.90;;;;;;8409701;28;19935;-72
2022/11/02 10:44:55;;;;;;;;;;;16.60;99.90;;;;;;8423952;28;20387;-72
2022/11/02 10:48:57;;;;;;;;;;;16.70;99.90;;;;;;8414314;28;20394;-72
2022/11/02 10:52:59;;;;;;;;;;;16.70;99.90;;;;;;8412237;28;19946;-72
2022/11/02 10:57:22;;;;;;;;;;;16.90;99.90;;;;;;8373110;28;19928;-72
2022/11/02 11:01:24;;;;;;;;;;;17.20;99.90;;;;;;8382364;28;19928;-72
2022/11/02 11:05:26;;;;;;;;;;;17.20;99.90;;;;;;8397162;28;19931;-72
2022/11/02 11:09:33;;;;;;;;;;;17.50;99.90;;;;;;8384972;28;19924;-72
2022/11/02 11:13:35;;;;;;;;;;;17.70;99.90;;;;;;8397945;28;20376;-72
2022/11/02 11:17:57;;;;;;;;;;;17.80;99.90;;;;;;8373456;28;19954;-72
2022/11/02 11:22:24;;;;;;;;;;;18.10;99.90;;;;;;8385660;28;20280;-72
2022/11/02 11:26:26;;;;;;;;;;;18.30;99.90;;;;;;8385658;28;19929;-72
2022/11/02 11:30:29;;;;;;;;;;;18.50;99.90;;;;;;8386536;28;19925;-73
2022/11/02 11:35:13;;;;;;;;;;;18.50;99.90;;;;;;8372513;28;19928;-72
2022/11/02 11:39:28;;;;;;;;;;;18.30;99.90;;;;;;8366636;28;19930;-72
2022/11/02 11:43:33;;;;;;;;;;;18.20;99.90;;;;;;8402011;28;19960;-72
2022/11/02 11:47:36;;;;;;;;;;;17.90;99.90;;;;;;8386124;28;20011;-72
2022/11/02 11:51:41;;;;;;;;;;;17.70;99.90;;;;;;8385327;28;19939;-72
2022/11/02 11:55:47;;;;;;;;;;;17.50;99.90;;;;;;8387625;28;19990;-72
2022/11/02 11:59:54;;;;;;;;;;;17.40;99.90;;;;;;8383930;28;20414;-72
2022/11/02 12:03:59;;;;;;;;;;;17.40;99.90;;;;;;8387460;28;19929;-72
2022/11/02 12:08:06;;;;;;;;;;;17.30;99.90;;;;;;8385455;28;20042;-72
2022/11/02 12:12:16;;;;;;;;;;;17.20;99.90;;;;;;8404168;28;19925;-72
2022/11/02 12:16:20;;;;;;;;;;;17.40;99.90;;;;;;8382103;28;19932;-72
2022/11/02 12:20:38;;;;;;;;;;;17.60;99.90;;;;;;8384455;28;20360;-72
2022/11/02 12:24:52;;;;;;;;;;;17.50;99.90;;;;;;8386937;28;19933;-72
2022/11/02 12:29:05;;;;;;;;;;;17.50;99.90;;;;;;8387283;28;20019;-72
2022/11/02 12:33:23;;;;;;;;;;;17.40;99.90;;;;;;8391393;28;19964;-72
2022/11/02 12:37:34;;;;;;;;;;;17.20;99.90;;;;;;8407244;28;19932;-72
2022/11/02 12:41:50;;;;;;;;;;;17.00;99.90;;;;;;8374934;28;19967;-72
2022/11/02 12:46:09;;;;;;;;;;;16.90;99.90;;;;;;8408529;28;19935;-72
2022/11/02 12:50:20;;;;;;;;;;;16.80;99.90;;;;;;8373687;28;20194;-72
2022/11/02 12:54:25;;;;;;;;;;;16.70;99.90;;;;;;8395713;28;20395;-72
2022/11/02 12:58:28;;;;;;;;;;;16.80;99.90;;;;;;8390802;28;20283;-72
2022/11/02 13:02:29;;;;;;;;;;;16.70;99.90;;;;;;8387720;28;19932;-73
2022/11/02 13:06:38;;;;;;;;;;;16.60;99.90;;;;;;8405838;28;19925;-72
2022/11/02 13:10:43;;;;;;;;;;;16.50;99.90;;;;;;8391318;28;19928;-72
2022/11/02 13:14:50;;;;;;;;;;;16.50;99.90;;;;;;8391183;28;19924;-72
2022/11/02 13:18:53;;;;;;;;;;;16.50;99.90;;;;;;8389074;28;19978;-72
2022/11/02 13:23:00;;;;;;;;;;;16.40;99.90;;;;;;8406751;28;19928;-72
2022/11/02 13:27:04;;;;;;;;;;;16.30;99.90;;;;;;8388755;28;19928;-72
2022/11/02 13:31:31;;;;;;;;;;;16.30;99.90;;;;;;8390247;28;19976;-71
2022/11/02 13:35:34;;;;;;;;;;;16.40;99.90;;;;;;8389871;28;19934;-71
2022/11/02 13:39:37;;;;;;;;;;;16.40;99.90;;;;;;8382832;28;19928;-71
2022/11/02 13:43:47;;;;;;;;;;;16.50;99.90;;;;;;8385502;28;20019;-71
2022/11/02 13:48:05;;;;;;;;;;;16.40;99.90;;;;;;8384275;28;20023;-71
2022/11/02 13:52:14;;;;;;;;;;;16.30;99.90;;;;;;8402835;27;19925;-71
2022/11/02 13:56:24;;;;;;;;;;;16.10;99.90;;;;;;8373581;28;20023;-71
2022/11/02 14:00:25;;;;;;;;;;;15.90;99.90;;;;;;8403190;27;20379;-71
2022/11/02 14:04:29;;;;;;;;;;;15.80;99.90;;;;;;8383543;28;19934;-71
2022/11/02 14:08:31;;;;;;;;;;;15.70;99.90;;;;;;8385206;28;20019;-71
2022/11/02 14:12:38;;;;;;;;;;;15.80;99.90;;;;;;8387824;28;19934;-71
2022/11/02 14:16:43;;;;;;;;;;;15.80;99.90;;;;;;8384394;28;19933;-71
2022/11/02 14:20:46;;;;;;;;;;;15.90;99.90;;;;;;8385299;28;19939;-71
2022/11/02 14:24:48;;;;;;;;;;;15.90;99.90;;;;;;8387860;28;19932;-71
2022/11/02 14:28:50;;;;;;;;;;;16.30;99.90;;;;;;8383187;28;20086;-71
2022/11/02 14:32:58;;;;;;;;;;;17.20;99.90;;;;;;8385029;28;19932;-71
2022/11/02 14:37:21;;;;;;;;;;;17.70;99.90;;;;;;8368423;28;19938;-71
2022/11/02 14:41:41;;;;;;;;;;;17.50;99.90;;;;;;8387021;28;20368;-71
2022/11/02 14:45:46;;;;;;;;;;;16.90;99.90;;;;;;8383295;28;19985;-71
2022/11/02 14:49:50;;;;;;;;;;;16.50;99.90;;;;;;8399997;28;19958;-71
2022/11/02 14:53:56;;;;;;;;;;;16.60;99.90;;;;;;8385671;28;20380;-68
2022/11/02 14:57:59;;;;;;;;;;;17.10;99.90;;;;;;8396653;28;19930;-68
2022/11/02 15:02:08;;;;;;;;;;;17.30;99.90;;;;;;8383509;28;24490;-68
2022/11/02 15:06:09;;;;;;;;;;;17.20;99.90;;;;;;8363967;28;19924;-68
2022/11/02 15:10:14;;;;;;;;;;;16.90;99.90;;;;;;8390588;28;20026;-68
2022/11/02 15:14:34;;;;;;;;;;;16.50;99.90;;;;;;8386640;28;20007;-80
2022/11/02 15:18:36;;;;;;;;;;;16.20;99.90;;;;;;8408661;28;20375;-80
2022/11/02 15:22:40;;;;;;;;;;;15.90;99.90;;;;;;8386843;28;19924;-80
2022/11/02 15:26:45;;;;;;;;;;;15.70;99.90;;;;;;8383274;28;19932;-79
2022/11/02 15:30:51;;;;;;;;;;;15.50;99.90;;;;;;8404014;28;20038;-80
2022/11/02 15:34:53;;;;;;;;;;;15.30;99.90;;;;;;8380789;28;19929;-80
2022/11/02 15:38:55;;;;;;;;;;;15.10;99.90;;;;;;8394595;28;19947;-80
2022/11/02 15:43:03;;;;;;;;;;;15.00;99.90;;;;;;8411755;27;20023;-80
2022/11/02 15:47:23;;;;;;;;;;;14.90;99.90;;;;;;8409637;28;19927;-79
2022/11/02 15:51:38;;;;;;;;;;;14.80;99.90;;;;;;8413026;28;19942;-80
2022/11/02 15:55:58;;;;;;;;;;;14.70;99.90;;;;;;8413371;28;20118;-80
2022/11/02 16:10:19;;;;;;;;;;;14.40;99.90;;;;;;8401656;28;19962;-80
2022/11/02 16:14:21;;;;;;;;;;;14.40;99.90;;;;;;8398019;28;19990;-80
2022/11/02 16:18:23;;;;;;;;;;;14.30;99.90;;;;;;8394924;28;20481;-79
2022/11/02 16:22:25;;;;;;;;;;;14.20;99.90;;;;;;8397552;28;20355;-80
2022/11/02 16:26:28;;;;;;;;;;;14.20;99.90;;;;;;8417711;27;20845;-80
2022/11/02 16:30:30;;;;;;;;;;;14.10;99.90;;;;;;8405908;28;19932;-79
2022/11/02 16:34:32;;;;;;;;;;;14.10;99.90;;;;;;8386463;28;20259;-79
2022/11/02 16:38:37;;;;;;;;;;;14.10;99.90;;;;;;8410339;27;20026;-80
2022/11/02 16:42:39;;;;;;;;;;;14.00;99.90;;;;;;8396199;28;19935;-80
2022/11/02 16:51:48;;;;;;;;;;;14.00;99.90;;;;;;8416670;28;19926;-79
2022/11/02 16:55:52;;;;;;;;;;;13.90;99.90;;;;;;8406866;28;20019;-80
2022/11/02 16:59:57;;;;;;;;;;;13.90;99.90;;;;;;8400799;28;20361;-80
2022/11/02 17:03:59;;;;;;;;;;;13.80;99.90;;;;;;8407447;28;20383;-80
2022/11/02 17:08:07;;;;;;;;;;;13.70;99.90;;;;;;8399921;28;20311;-80
2022/11/02 17:12:12;;;;;;;;;;;13.70;99.90;;;;;;8397595;28;19975;-79
2022/11/02 17:16:14;;;;;;;;;;;13.70;99.90;;;;;;8394903;28;19928;-79
2022/11/02 17:20:20;;;;;;;;;;;13.70;99.90;;;;;;8405408;28;20393;-79
2022/11/02 17:24:29;;;;;;;;;;;13.60;99.90;;;;;;8395886;28;20015;-79
2022/11/02 17:28:42;;;;;;;;;;;13.60;99.90;;;;;;8389888;28;20000;-80
2022/11/02 17:32:45;;;;;;;;;;;13.50;99.90;;;;;;8396759;28;19955;-80
2022/11/02 17:36:47;;;;;;;;;;;13.50;99.90;;;;;;8390021;28;20363;-79
2022/11/02 17:40:51;;;;;;;;;;;13.50;99.90;;;;;;8411382;27;19924;-79
2022/11/02 17:44:52;;;;;;;;;;;13.50;99.90;;;;;;8404369;28;19932;-79
2022/11/02 17:48:54;;;;;;;;;;;13.50;99.90;;;;;;8374963;28;19931;-79
2022/11/02 17:52:56;;;;;;;;;;;13.40;99.90;;;;;;8395463;28;20023;-79
2022/11/02 17:57:00;;;;;;;;;;;13.40;99.90;;;;;;8382834;28;19930;-79
2022/11/02 18:01:02;;;;;;;;;;;13.40;99.90;;;;;;8413033;28;19932;-80
2022/11/02 18:05:09;;;;;;;;;;;13.40;99.90;;;;;;8404220;28;20135;-79
2022/11/02 18:09:13;;;;;;;;;;;13.40;99.90;;;;;;8398932;28;19949;-79
2022/11/02 18:13:16;;;;;;;;;;;13.40;99.90;;;;;;8394931;28;20264;-79
2022/11/02 18:17:18;;;;;;;;;;;13.40;99.90;;;;;;8390327;28;19931;-79
2022/11/02 18:21:19;;;;;;;;;;;13.30;99.90;;;;;;8366970;28;19924;-80
2022/11/02 18:25:22;;;;;;;;;;;13.30;99.90;;;;;;8392277;28;20375;-79
2022/11/02 18:29:23;;;;;;;;;;;13.20;99.90;;;;;;8399120;28;19930;-79
2022/11/02 18:33:25;;;;;;;;;;;13.20;99.90;;;;;;8416164;28;20605;-79
2022/11/02 18:37:27;;;;;;;;;;;13.20;99.90;;;;;;8397686;28;19935;-79
2022/11/02 18:41:29;;;;;;;;;;;13.20;99.90;;;;;;8397158;28;19927;-78
2022/11/02 18:45:31;;;;;;;;;;;13.10;99.90;;;;;;8398056;28;20315;-79
2022/11/02 18:49:33;;;;;;;;;;;13.20;99.90;;;;;;8385136;28;19928;-79
2022/11/02 18:53:34;;;;;;;;;;;13.10;99.90;;;;;;8393729;28;19954;-79
2022/11/02 18:57:36;;;;;;;;;;;13.10;99.90;;;;;;8394532;28;19924;-79
2022/11/02 19:01:38;;;;;;;;;;;13.10;99.90;;;;;;8396459;28;19924;-79
2022/11/02 19:10:00;;;;;;;;;;;13.10;99.90;;;;;;8397989;28;19928;-80
2022/11/02 19:14:04;;;;;;;;;;;13.10;99.90;;;;;;8393745;28;20612;-80
2022/11/02 19:18:06;;;;;;;;;;;13.00;99.90;;;;;;8377772;28;19932;-80
2022/11/02 19:22:12;;;;;;;;;;;13.00;99.90;;;;;;8392372;28;19932;-79
2022/11/02 19:26:13;;;;;;;;;;;13.00;99.90;;;;;;8391882;28;20439;-80
2022/11/02 19:30:15;;;;;;;;;;;13.00;99.90;;;;;;8399853;28;19931;-79
2022/11/02 19:34:16;;;;;;;;;;;13.00;99.90;;;;;;8420052;28;20443;-79
2022/11/02 19:38:18;;;;;;;;;;;13.00;99.90;;;;;;8405675;28;19977;-80
2022/11/02 19:42:20;;;;;;;;;;;13.00;99.90;;;;;;8387236;28;19924;-80
2022/11/02 19:46:21;;;;;;;;;;;13.00;99.90;;;;;;8389046;28;20403;-79
2022/11/02 19:50:23;;;;;;;;;;;13.00;99.90;;;;;;8394747;28;19925;-80
2022/11/02 19:54:25;;;;;;;;;;;13.00;99.90;;;;;;8396551;28;19940;-79
2022/11/02 19:58:26;;;;;;;;;;;12.90;99.90;;;;;;8392356;28;19932;-79
2022/11/02 20:02:28;;;;;;;;;;;12.90;99.90;;;;;;8398926;28;19928;-79
2022/11/02 20:06:34;;;;;;;;;;;12.90;99.90;;;;;;8396064;28;20007;-80
2022/11/02 20:10:35;;;;;;;;;;;12.90;99.90;;;;;;8398631;28;19924;-79
2022/11/02 20:14:37;;;;;;;;;;;12.80;99.90;;;;;;8383692;28;19928;-79
2022/11/02 20:18:40;;;;;;;;;;;12.80;99.90;;;;;;8396128;28;19924;-79
2022/11/02 20:22:42;;;;;;;;;;;12.80;99.90;;;;;;8392793;28;19928;-79
2022/11/02 20:26:43;;;;;;;;;;;12.80;99.90;;;;;;8392031;28;19925;-80
2022/11/02 20:30:45;;;;;;;;;;;12.70;99.90;;;;;;8406745;28;19940;-79
2022/11/02 20:34:46;;;;;;;;;;;12.70;99.90;;;;;;8395373;28;20066;-79
2022/11/02 20:38:49;;;;;;;;;;;12.70;99.90;;;;;;8394510;28;20450;-79
2022/11/02 20:42:51;;;;;;;;;;;12.60;99.90;;;;;;8391460;28;20566;-79
2022/11/02 20:46:53;;;;;;;;;;;12.60;99.90;;;;;;8397241;28;19936;-80
2022/11/02 20:50:54;;;;;;;;;;;12.60;99.90;;;;;;8378610;28;19934;-79
2022/11/02 20:54:56;;;;;;;;;;;12.60;99.90;;;;;;8380259;28;20114;-79
2022/11/02 20:58:57;;;;;;;;;;;12.60;99.90;;;;;;8382093;28;20392;-80
2022/11/02 21:02:59;;;;;;;;;;;12.50;99.90;;;;;;8398941;28;19928;-79
2022/11/02 21:07:01;;;;;;;;;;;12.50;99.90;;;;;;8398770;28;19932;-80
2022/11/02 21:13:50;;;;;;;;;;;12.50;99.90;;;;;;8398889;28;19931;-79
2022/11/02 21:15:24;;;;;;;;;;;12.50;99.90;;;;;;8395640;28;19924;-80
2022/11/02 21:19:26;;;;;;;;;;;12.50;99.90;;;;;;8385349;28;19931;-79
2022/11/02 21:23:28;;;;;;;;;;;12.40;99.90;;;;;;8396278;28;19932;-80
2022/11/02 21:27:29;;;;;;;;;;;12.40;99.90;;;;;;8398572;28;20301;-79
2022/11/02 21:31:31;;;;;;;;;;;12.40;99.90;;;;;;8391298;28;19928;-79
2022/11/02 21:35:33;;;;;;;;;;;12.40;99.90;;;;;;8414138;27;19930;-79
2022/11/02 21:39:35;;;;;;;;;;;12.40;99.90;;;;;;8399864;28;19928;-80
2022/11/02 21:43:37;;;;;;;;;;;12.40;99.90;;;;;;8397162;28;19931;-80
2022/11/02 21:47:38;;;;;;;;;;;12.40;99.90;;;;;;8399137;28;20373;-78
2022/11/02 21:51:41;;;;;;;;;;;12.40;99.90;;;;;;8378638;28;19928;-78
2022/11/02 21:55:44;;;;;;;;;;;12.40;99.90;;;;;;8391543;28;20031;-79
2022/11/02 21:59:45;;;;;;;;;;;12.40;99.90;;;;;;8404096;28;20376;-79
2022/11/02 22:03:47;;;;;;;;;;;12.50;99.90;;;;;;8423651;28;19971;-79
2022/11/02 22:31:41;;;;;;;;;;;12.60;99.90;;;;;;8414823;28;20072;-79
2022/11/02 22:35:42;;;;;;;;;;;12.50;99.90;;;;;;8392157;28;19933;-79
2022/11/02 22:39:44;;;;;;;;;;;12.50;99.90;;;;;;8429919;28;19924;-80
2022/11/02 22:43:46;;;;;;;;;;;12.50;99.90;;;;;;8442106;27;20011;-79
2022/11/02 22:47:48;;;;;;;;;;;12.50;99.90;;;;;;8434162;28;19924;-80
2022/11/02 22:51:49;;;;;;;;;;;12.50;99.90;;;;;;8424810;28;19924;-79
2022/11/02 22:56:02;;;;;;;;;;;12.50;99.90;;;;;;8392858;28;19931;-80
2022/11/02 23:09:49;;;;;;;;;;;12.50;99.90;;;;;;8426491;28;19936;-79
2022/11/02 23:33:24;;;;;;;;;;;12.30;99.90;;;;;;8423837;28;20481;-79
2022/11/02 23:37:25;;;;;;;;;;;12.30;99.90;;;;;;8418377;28;19927;-79
2022/11/02 23:41:27;;;;;;;;;;;12.20;99.90;;;;;;8427338;28;20391;-80
2022/11/02 23:45:29;;;;;;;;;;;12.20;99.90;;;;;;8421444;28;19930;-79
2022/11/02 23:49:31;;;;;;;;;;;12.20;99.90;;;;;;8436069;28;19938;-79
2022/11/02 23:57:53;;;;;;;;;;;12.20;99.90;;;;;;8417489;28;19938;-79
